Terminal Aerodrome Forecast
Issued by NWS Northern Indiana

Home | Current Version | Previous Version | Text Only | Print | Product List | Glossary On
Versions: 1 2 3 4 5 6 7 8 9 10 11 12 13 14 15 16
371
FTUS43 KIWX 221130
TAFFWA
TAF
KFWA 221130Z 2212/2312 25012KT P6SM SCT045
     FM221500 26012G19KT P6SM FEW050 SCT250
     FM222300 22008KT P6SM SCT200
     FM230500 19004KT P6SM FEW050 BKN120=

USA.gov is the U.S. government's official web portal to all federal, state and local government web resources and services.